Time;durP1;ratioP1;P1;durP2;ratioP2;P2;SDS_P1;SDS_P2;PMS_P1;PMS_P2;Temp;Humidity;BMP_temperature;BMP_pressure;BME280_temperature;BME280_humidity;BME280_pressure;Samples;Min_cycle;Max_cycle;Signal;HPM_P1;HPM_P2
2021/07/25 00:00:07;;;;;;;139.55;83.15;;;;;;;;;;5074907;28;20031;-66
2021/07/25 00:02:34;;;;;;;143.70;85.32;;;;;;;;;;5093065;28;20032;-66
2021/07/25 00:05:00;;;;;;;142.15;86.30;;;;;;;;;;5092878;28;20040;-67
2021/07/25 00:07:26;;;;;;;139.15;83.03;;;;;;;;;;5074833;28;20041;-67
2021/07/25 00:09:52;;;;;;;134.15;81.30;;;;;;;;;;5093014;28;20024;-66
2021/07/25 00:12:18;;;;;;;130.07;82.32;;;;;;;;;;5075047;28;20388;-66
2021/07/25 00:14:44;;;;;;;131.02;82.90;;;;;;;;;;5074656;28;20020;-66
2021/07/25 00:17:10;;;;;;;132.82;81.57;;;;;;;;;;5074760;28;20507;-66
2021/07/25 00:19:37;;;;;;;134.45;83.20;;;;;;;;;;5074387;28;20051;-67
2021/07/25 00:22:09;;;;;;;127.57;80.78;;;;;;;;;;5074793;28;20470;-66
2021/07/25 00:24:38;;;;;;;132.15;81.78;;;;;;;;;;5092710;28;20494;-66
2021/07/25 00:27:05;;;;;;;131.85;82.43;;;;;;;;;;5092556;28;20024;-67
2021/07/25 00:29:31;;;;;;;131.13;79.15;;;;;;;;;;5092231;28;20117;-65
2021/07/25 00:32:00;;;;;;;122.10;78.68;;;;;;;;;;5092699;28;20023;-66
2021/07/25 00:34:27;;;;;;;129.52;81.60;;;;;;;;;;5092618;28;20055;-65
2021/07/25 00:36:53;;;;;;;123.80;78.45;;;;;;;;;;5092424;28;20035;-65
2021/07/25 00:39:19;;;;;;;122.68;79.75;;;;;;;;;;5092579;28;20115;-66
2021/07/25 00:41:45;;;;;;;122.95;79.60;;;;;;;;;;5092604;28;20032;-67
2021/07/25 00:44:11;;;;;;;118.75;75.03;;;;;;;;;;5092278;28;20054;-67
2021/07/25 00:46:37;;;;;;;114.70;78.25;;;;;;;;;;5074240;28;20451;-67
2021/07/25 00:49:03;;;;;;;113.38;74.82;;;;;;;;;;5074399;28;20418;-66
2021/07/25 00:51:30;;;;;;;117.07;78.60;;;;;;;;;;5074483;28;20058;-67
2021/07/25 00:53:56;;;;;;;108.28;72.03;;;;;;;;;;5093677;28;20024;-68
2021/07/25 00:56:22;;;;;;;112.82;74.88;;;;;;;;;;5075382;28;20016;-67
2021/07/25 00:58:48;;;;;;;113.70;72.15;;;;;;;;;;5075570;28;20020;-68
2021/07/25 01:01:14;;;;;;;122.97;76.22;;;;;;;;;;5075235;28;20048;-66
2021/07/25 01:03:40;;;;;;;108.90;71.50;;;;;;;;;;5075239;28;20028;-66
2021/07/25 01:06:18;;;;;;;106.20;71.82;;;;;;;;;;5092374;28;20093;-66
2021/07/25 01:09:07;;;;;;;114.57;72.90;;;;;;;;;;5092552;28;20043;-67
2021/07/25 01:11:54;;;;;;;115.50;72.88;;;;;;;;;;5092462;28;20020;-67
2021/07/25 01:14:24;;;;;;;118.45;73.47;;;;;;;;;;5092252;28;20024;-66
2021/07/25 01:16:50;;;;;;;107.75;70.13;;;;;;;;;;5074915;28;20609;-67
2021/07/25 01:19:16;;;;;;;118.70;73.95;;;;;;;;;;5092849;28;20046;-66
2021/07/25 01:21:42;;;;;;;117.63;75.07;;;;;;;;;;5092805;28;20020;-65
2021/07/25 01:24:08;;;;;;;122.07;75.40;;;;;;;;;;5092433;28;20105;-65
2021/07/25 01:26:36;;;;;;;118.25;73.70;;;;;;;;;;5092067;28;20055;-67
2021/07/25 01:29:02;;;;;;;;;;;;;;;;;;5092651;28;20020;-66
2021/07/25 01:31:33;;;;;;;123.43;74.25;;;;;;;;;;5092341;28;20286;-66
2021/07/25 01:34:00;;;;;;;117.68;74.22;;;;;;;;;;5074505;28;20491;-64
2021/07/25 01:36:27;;;;;;;112.05;74.82;;;;;;;;;;5092201;28;20020;-66
2021/07/25 01:38:53;;;;;;;118.32;73.47;;;;;;;;;;5092987;28;20028;-66
2021/07/25 01:41:20;;;;;;;118.60;72.20;;;;;;;;;;5077744;28;20506;-66
2021/07/25 01:43:49;;;;;;;110.93;71.88;;;;;;;;;;5097010;28;20028;-65
2021/07/25 01:46:16;;;;;;;122.18;74.20;;;;;;;;;;5096841;28;20107;-67
2021/07/25 01:48:42;;;;;;;118.65;72.57;;;;;;;;;;5097080;28;20031;-66
2021/07/25 01:51:10;;;;;;;127.07;74.90;;;;;;;;;;5096373;28;20431;-67
2021/07/25 01:53:36;;;;;;;110.57;71.45;;;;;;;;;;5096310;28;20539;-65
2021/07/25 01:56:02;;;;;;;123.28;72.40;;;;;;;;;;5096547;28;20060;-66
2021/07/25 01:58:28;;;;;;;108.65;69.53;;;;;;;;;;5096670;28;20506;-66
2021/07/25 02:00:54;;;;;;;117.15;71.05;;;;;;;;;;5095739;28;20032;-66
2021/07/25 02:03:25;;;;;;;116.13;70.75;;;;;;;;;;5077832;28;20031;-66
2021/07/25 02:05:51;;;;;;;113.45;69.40;;;;;;;;;;5077482;28;20031;-66
2021/07/25 02:08:18;;;;;;;116.80;69.53;;;;;;;;;;5077614;28;20077;-65
2021/07/25 02:10:47;;;;;;;104.72;68.63;;;;;;;;;;5095627;28;20020;-66
2021/07/25 02:13:14;;;;;;;110.18;70.97;;;;;;;;;;5077417;28;20111;-66
2021/07/25 02:15:40;;;;;;;104.68;66.85;;;;;;;;;;5077215;28;20580;-66
2021/07/25 02:18:06;;;;;;;107.00;65.22;;;;;;;;;;5095462;28;20526;-64
2021/07/25 02:20:32;;;;;;;104.65;65.43;;;;;;;;;;5077700;28;20377;-65
2021/07/25 02:22:58;;;;;;;102.82;64.72;;;;;;;;;;5077431;28;20024;-66
2021/07/25 02:25:24;;;;;;;98.95;67.35;;;;;;;;;;5076980;28;20034;-65
2021/07/25 02:27:50;;;;;;;103.10;66.28;;;;;;;;;;5095172;28;20073;-65
2021/07/25 02:30:16;;;;;;;106.35;66.57;;;;;;;;;;5076680;28;20030;-65
2021/07/25 02:32:42;;;;;;;98.28;63.45;;;;;;;;;;5094680;28;20160;-66
2021/07/25 02:35:08;;;;;;;113.90;67.97;;;;;;;;;;5094450;28;20061;-65
2021/07/25 02:37:34;;;;;;;100.03;64.32;;;;;;;;;;5094727;28;20043;-66
2021/07/25 02:40:00;;;;;;;102.15;65.53;;;;;;;;;;5108071;22;20039;-64
2021/07/25 02:42:26;;;;;;;104.50;67.28;;;;;;;;;;5014108;28;20033;-63
2021/07/25 02:44:52;;;;;;;105.15;63.97;;;;;;;;;;4996513;28;20083;-65
2021/07/25 02:47:18;;;;;;;110.13;67.63;;;;;;;;;;4996344;28;20105;-65
2021/07/25 02:49:44;;;;;;;107.10;67.65;;;;;;;;;;5014123;28;20091;-65
2021/07/25 02:52:10;;;;;;;108.85;67.35;;;;;;;;;;5013831;28;20029;-66
2021/07/25 02:54:36;;;;;;;106.47;65.22;;;;;;;;;;5014070;28;20069;-65
2021/07/25 02:57:03;;;;;;;107.35;64.75;;;;;;;;;;4996246;28;20026;-64
2021/07/25 02:59:30;;;;;;;106.78;66.20;;;;;;;;;;4996393;28;20635;-65
2021/07/25 03:01:56;;;;;;;108.88;66.65;;;;;;;;;;5014013;28;20048;-65
2021/07/25 03:04:22;;;;;;;112.60;68.60;;;;;;;;;;5014014;28;20026;-65
2021/07/25 03:06:48;;;;;;;111.40;65.65;;;;;;;;;;5013639;28;20433;-65
2021/07/25 03:09:14;;;;;;;111.78;67.35;;;;;;;;;;4996260;28;20026;-65
2021/07/25 03:11:41;;;;;;;97.90;63.08;;;;;;;;;;5013795;28;20029;-65
2021/07/25 03:14:07;;;;;;;91.47;60.40;;;;;;;;;;4996202;28;20022;-64
2021/07/25 03:16:33;;;;;;;102.18;63.88;;;;;;;;;;5013456;28;20398;-65
2021/07/25 03:18:59;;;;;;;101.53;63.25;;;;;;;;;;4996235;28;20022;-64
2021/07/25 03:21:25;;;;;;;104.60;61.92;;;;;;;;;;5013742;28;20104;-63
2021/07/25 03:23:51;;;;;;;101.70;61.20;;;;;;;;;;4996187;28;20116;-64
2021/07/25 03:26:18;;;;;;;102.60;63.22;;;;;;;;;;4995943;28;20026;-65
2021/07/25 03:28:44;;;;;;;106.63;66.10;;;;;;;;;;4996176;28;20398;-64
2021/07/25 03:31:10;;;;;;;108.95;67.32;;;;;;;;;;4996054;28;20026;-65
2021/07/25 03:33:36;;;;;;;105.30;61.42;;;;;;;;;;5013806;28;20120;-65
2021/07/25 03:36:03;;;;;;;104.85;64.97;;;;;;;;;;5013377;28;20029;-66
2021/07/25 03:38:29;;;;;;;100.43;64.13;;;;;;;;;;4996042;28;20042;-65
2021/07/25 03:41:01;;;;;;;102.18;60.47;;;;;;;;;;4995496;28;20052;-64
2021/07/25 03:43:28;;;;;;;95.45;58.53;;;;;;;;;;5013065;28;20049;-64
2021/07/25 03:45:54;;;;;;;93.20;59.38;;;;;;;;;;5012812;28;20029;-65
2021/07/25 03:48:20;;;;;;;101.95;61.78;;;;;;;;;;5013172;28;20029;-65
2021/07/25 03:50:46;;;;;;;98.57;61.88;;;;;;;;;;5013565;28;20486;-65
2021/07/25 03:53:12;;;;;;;104.07;58.63;;;;;;;;;;5013019;28;20022;-65
2021/07/25 03:55:38;;;;;;;98.00;60.95;;;;;;;;;;4995356;28;20030;-65
2021/07/25 03:58:04;;;;;;;90.68;56.88;;;;;;;;;;4995567;28;20056;-65
2021/07/25 04:00:30;;;;;;;98.95;58.22;;;;;;;;;;5012884;28;20026;-65
2021/07/25 04:02:56;;;;;;;98.53;58.70;;;;;;;;;;5012236;28;20026;-65
2021/07/25 04:05:24;;;;;;;100.93;59.95;;;;;;;;;;5012755;28;20030;-65
2021/07/25 04:07:50;;;;;;;103.95;59.28;;;;;;;;;;4996112;28;20022;-65
2021/07/25 04:10:16;;;;;;;99.85;56.92;;;;;;;;;;4995426;28;20037;-65
2021/07/25 04:12:42;;;;;;;100.32;57.72;;;;;;;;;;5013164;28;20097;-65
2021/07/25 04:15:08;;;;;;;101.78;59.63;;;;;;;;;;4995454;28;20026;-64
2021/07/25 04:17:35;;;;;;;91.20;57.75;;;;;;;;;;4994917;28;20036;-65
2021/07/25 04:20:01;;;;;;;95.25;57.58;;;;;;;;;;5012418;28;20092;-65
2021/07/25 04:22:31;;;;;;;101.05;58.25;;;;;;;;;;5013073;28;20029;-64
2021/07/25 04:24:57;;;;;;;95.28;57.72;;;;;;;;;;4995529;28;20407;-65
2021/07/25 04:27:24;;;;;;;94.72;57.38;;;;;;;;;;5012899;28;20125;-64
2021/07/25 04:29:50;;;;;;;104.78;59.83;;;;;;;;;;4995613;28;20248;-65
2021/07/25 04:32:16;;;;;;;95.22;57.90;;;;;;;;;;4995635;28;20114;-64
2021/07/25 04:34:44;;;;;;;82.77;52.03;;;;;;;;;;4995192;28;20565;-64
2021/07/25 04:37:21;;;;;;;87.57;55.03;;;;;;;;;;5012796;28;20482;-65
2021/07/25 04:39:48;;;;;;;81.63;52.55;;;;;;;;;;4994667;28;20022;-65
2021/07/25 04:42:14;;;;;;;77.88;51.00;;;;;;;;;;4994836;28;20088;-65
2021/07/25 04:44:46;;;;;;;79.47;50.75;;;;;;;;;;5012273;28;20502;-65
2021/07/25 04:47:17;;;;;;;77.78;50.63;;;;;;;;;;4994442;28;20092;-66
2021/07/25 04:49:46;;;;;;;72.68;49.72;;;;;;;;;;5012469;28;20105;-65
2021/07/25 04:52:13;;;;;;;70.57;48.78;;;;;;;;;;4994724;28;20021;-65
2021/07/25 04:54:39;;;;;;;76.93;49.40;;;;;;;;;;4994674;28;20030;-67
2021/07/25 04:57:06;;;;;;;73.95;50.53;;;;;;;;;;5012112;28;20022;-67
2021/07/25 04:59:41;;;;;;;66.07;46.30;;;;;;;;;;4994642;28;20021;-67
2021/07/25 05:02:08;;;;;;;75.05;47.35;;;;;;;;;;4994749;28;20094;-67
2021/07/25 05:04:34;;;;;;;70.28;45.53;;;;;;;;;;5012180;28;20053;-67
2021/07/25 05:07:00;;;;;;;71.63;48.25;;;;;;;;;;5011939;28;20025;-67
2021/07/25 05:09:26;;;;;;;67.90;43.55;;;;;;;;;;4994741;28;20028;-67
2021/07/25 05:12:10;;;;;;;65.28;47.60;;;;;;;;;;4993159;28;20018;-67
2021/07/25 05:14:37;;;;;;;66.10;45.80;;;;;;;;;;5019617;28;20022;-68
2021/07/25 05:17:04;;;;;;;66.15;44.55;;;;;;;;;;5009102;28;20052;-68
2021/07/25 05:19:33;;;;;;;67.20;45.53;;;;;;;;;;5035667;28;20044;-68
2021/07/25 05:22:15;;;;;;;64.32;45.45;;;;;;;;;;5019031;28;20030;-68
2021/07/25 05:24:45;;;;;;;61.47;45.53;;;;;;;;;;4998437;28;20083;-68
2021/07/25 05:27:14;;;;;;;64.65;43.72;;;;;;;;;;5018348;28;20108;-68
2021/07/25 05:29:40;;;;;;;64.03;45.45;;;;;;;;;;5007380;28;20031;-68
2021/07/25 05:32:06;;;;;;;62.42;43.95;;;;;;;;;;5017838;28;20053;-68
2021/07/25 05:34:32;;;;;;;60.25;43.65;;;;;;;;;;5018172;28;20041;-68
2021/07/25 05:36:58;;;;;;;56.20;42.65;;;;;;;;;;5017391;28;20037;-68
2021/07/25 05:39:24;;;;;;;54.83;41.75;;;;;;;;;;5017647;28;20036;-68
2021/07/25 05:41:50;;;;;;;60.75;41.17;;;;;;;;;;5017341;28;20033;-68
2021/07/25 05:44:16;;;;;;;58.05;39.97;;;;;;;;;;5017426;28;20029;-68
2021/07/25 05:46:42;;;;;;;53.90;38.33;;;;;;;;;;5025666;28;20018;-68
2021/07/25 05:49:08;;;;;;;52.15;38.90;;;;;;;;;;5015626;28;20409;-68
2021/07/25 05:51:34;;;;;;;53.70;39.17;;;;;;;;;;4997968;28;20126;-68
2021/07/25 05:54:00;;;;;;;50.95;38.53;;;;;;;;;;5015647;28;20075;-68
2021/07/25 05:56:26;;;;;;;50.78;37.38;;;;;;;;;;4997857;28;20449;-68
2021/07/25 05:58:52;;;;;;;52.50;38.00;;;;;;;;;;4997687;28;20041;-68
2021/07/25 06:01:18;;;;;;;51.30;35.35;;;;;;;;;;4997768;28;20141;-68
2021/07/25 06:03:44;;;;;;;45.28;34.67;;;;;;;;;;5015342;28;20025;-68
2021/07/25 06:06:10;;;;;;;50.55;35.55;;;;;;;;;;4996968;28;20026;-68
2021/07/25 06:08:36;;;;;;;44.17;32.80;;;;;;;;;;5014917;28;20022;-68
2021/07/25 06:11:02;;;;;;;46.47;31.67;;;;;;;;;;5014954;28;20065;-68
2021/07/25 06:13:28;;;;;;;41.33;30.05;;;;;;;;;;5014440;28;20099;-68
2021/07/25 06:15:54;;;;;;;43.30;29.23;;;;;;;;;;5014496;28;20030;-68
2021/07/25 06:18:20;;;;;;;43.97;30.95;;;;;;;;;;4997357;28;20026;-68
2021/07/25 06:20:46;;;;;;;38.85;29.85;;;;;;;;;;4996908;28;20026;-67
2021/07/25 06:23:15;;;;;;;44.38;30.02;;;;;;;;;;5014788;28;20100;-68
2021/07/25 06:25:42;;;;;;;41.42;29.70;;;;;;;;;;5013705;28;20077;-67
2021/07/25 06:28:08;;;;;;;41.60;28.73;;;;;;;;;;5014556;28;20033;-68
2021/07/25 06:30:34;;;;;;;38.42;26.70;;;;;;;;;;4996827;28;20025;-68
2021/07/25 06:33:01;;;;;;;40.10;28.95;;;;;;;;;;5014637;28;20037;-68
2021/07/25 06:35:34;;;;;;;39.20;26.95;;;;;;;;;;5014421;28;20509;-66
2021/07/25 06:38:01;;;;;;;38.72;26.02;;;;;;;;;;5014635;28;20441;-66
2021/07/25 06:40:28;;;;;;;41.97;26.42;;;;;;;;;;5014386;28;20034;-66
2021/07/25 06:42:57;;;;;;;38.80;28.30;;;;;;;;;;5014531;28;20041;-65
2021/07/25 06:45:24;;;;;;;34.88;25.05;;;;;;;;;;5014127;28;20025;-64
2021/07/25 06:47:50;;;;;;;38.83;26.83;;;;;;;;;;5004219;28;20071;-65
2021/07/25 06:50:20;;;;;;;42.20;25.67;;;;;;;;;;5033877;28;20022;-63
2021/07/25 06:52:47;;;;;;;38.00;26.50;;;;;;;;;;5033852;28;20470;-63
2021/07/25 06:55:13;;;;;;;39.22;26.05;;;;;;;;;;5033535;28;20029;-63
2021/07/25 06:57:40;;;;;;;35.88;24.38;;;;;;;;;;5033934;28;20021;-63
2021/07/25 07:00:06;;;;;;;36.75;25.30;;;;;;;;;;5033419;28;20034;-63
2021/07/25 07:02:50;;;;;;;42.22;26.05;;;;;;;;;;5015720;28;20029;-63
2021/07/25 07:05:17;;;;;;;38.08;26.58;;;;;;;;;;5033402;28;20101;-62
2021/07/25 07:07:44;;;;;;;40.05;27.85;;;;;;;;;;5015889;28;20033;-64
2021/07/25 07:10:10;;;;;;;39.25;28.05;;;;;;;;;;5015798;28;20034;-64
2021/07/25 07:12:36;;;;;;;40.80;28.65;;;;;;;;;;5015424;28;20116;-63
2021/07/25 07:15:04;;;;;;;39.25;29.00;;;;;;;;;;5016541;28;20065;-63
2021/07/25 07:17:30;;;;;;;39.67;28.85;;;;;;;;;;4995812;28;20026;-63
2021/07/25 07:19:56;;;;;;;39.38;29.38;;;;;;;;;;4996236;28;20032;-63
2021/07/25 07:22:25;;;;;;;44.25;30.90;;;;;;;;;;4996301;28;20030;-63
2021/07/25 07:24:51;;;;;;;38.47;28.58;;;;;;;;;;4996478;28;20053;-62
2021/07/25 07:27:17;;;;;;;39.45;29.23;;;;;;;;;;5014049;28;20517;-63
2021/07/25 07:29:44;;;;;;;39.15;28.50;;;;;;;;;;5013506;28;20391;-67
2021/07/25 07:32:10;;;;;;;37.42;28.20;;;;;;;;;;5013533;28;20034;-65
2021/07/25 07:34:36;;;;;;;38.67;28.75;;;;;;;;;;4995577;28;20033;-65
2021/07/25 07:37:02;;;;;;;39.53;30.25;;;;;;;;;;4995324;28;20120;-66
2021/07/25 07:39:28;;;;;;;40.28;29.63;;;;;;;;;;4995029;28;20037;-66
2021/07/25 07:41:54;;;;;;;41.92;29.00;;;;;;;;;;5012670;28;20659;-66
2021/07/25 07:44:20;;;;;;;38.42;28.77;;;;;;;;;;4995289;28;20061;-67
2021/07/25 07:46:46;;;;;;;39.03;29.63;;;;;;;;;;5012900;28;20026;-66
2021/07/25 07:49:12;;;;;;;40.28;30.30;;;;;;;;;;4995243;28;20030;-66
2021/07/25 07:51:38;;;;;;;37.15;27.98;;;;;;;;;;5012514;28;20140;-67
2021/07/25 07:54:04;;;;;;;39.60;27.80;;;;;;;;;;5021182;28;20414;-67
2021/07/25 07:56:31;;;;;;;40.90;28.67;;;;;;;;;;5020690;28;20029;-67
2021/07/25 07:58:57;;;;;;;37.47;30.15;;;;;;;;;;5022607;28;20056;-67
2021/07/25 08:01:23;;;;;;;36.25;28.38;;;;;;;;;;5005331;28;20486;-67
2021/07/25 08:03:49;;;;;;;37.22;27.05;;;;;;;;;;5003229;28;20053;-66
2021/07/25 08:06:15;;;;;;;36.65;29.55;;;;;;;;;;5005525;28;20022;-67
2021/07/25 08:08:41;;;;;;;33.95;26.58;;;;;;;;;;5021258;28;20025;-66
2021/07/25 08:11:07;;;;;;;37.65;29.25;;;;;;;;;;4999939;28;20022;-67
2021/07/25 08:13:33;;;;;;;37.42;28.90;;;;;;;;;;4994983;28;20018;-67
2021/07/25 08:15:59;;;;;;;33.55;27.48;;;;;;;;;;5012378;28;20033;-66
2021/07/25 08:18:25;;;;;;;37.53;28.65;;;;;;;;;;5012635;28;20026;-67
2021/07/25 08:20:51;;;;;;;34.20;27.10;;;;;;;;;;4994734;28;20026;-67
2021/07/25 08:23:17;;;;;;;37.00;29.52;;;;;;;;;;4997439;28;20110;-67
2021/07/25 08:25:43;;;;;;;34.35;27.77;;;;;;;;;;5004438;28;20030;-67
2021/07/25 08:28:09;;;;;;;36.78;28.08;;;;;;;;;;5023040;28;20393;-67
2021/07/25 08:30:35;;;;;;;37.70;30.17;;;;;;;;;;5021966;28;20101;-67
2021/07/25 08:33:01;;;;;;;33.92;27.58;;;;;;;;;;5003042;28;20022;-67
2021/07/25 08:35:27;;;;;;;33.45;27.88;;;;;;;;;;5007759;28;20026;-67
2021/07/25 08:37:53;;;;;;;33.05;27.38;;;;;;;;;;5014067;28;20025;-66
2021/07/25 08:40:22;;;;;;;34.42;26.17;;;;;;;;;;5004064;28;20049;-67
2021/07/25 08:42:53;;;;;;;32.58;24.33;;;;;;;;;;4975324;28;20034;-67
2021/07/25 08:45:19;;;;;;;35.00;25.48;;;;;;;;;;4992334;28;20431;-66
2021/07/25 08:47:48;;;;;;;31.48;25.60;;;;;;;;;;4981000;28;20096;-66
2021/07/25 08:50:16;;;;;;;32.15;22.60;;;;;;;;;;5026182;28;20093;-66
2021/07/25 08:52:43;;;;;;;31.85;21.70;;;;;;;;;;5004421;28;20049;-66
2021/07/25 08:55:18;;;;;;;28.63;19.88;;;;;;;;;;5024385;28;20128;-65
2021/07/25 08:57:46;;;;;;;27.25;20.17;;;;;;;;;;5026911;28;20370;-66
2021/07/25 09:00:13;;;;;;;29.73;19.95;;;;;;;;;;5027941;28;20101;-66
2021/07/25 09:02:39;;;;;;;26.48;18.17;;;;;;;;;;5034509;28;20052;-66
2021/07/25 09:05:06;;;;;;;29.25;17.77;;;;;;;;;;5038549;28;20021;-66
2021/07/25 09:07:33;;;;;;;29.45;17.80;;;;;;;;;;5020731;28;20029;-66
2021/07/25 09:10:01;;;;;;;24.27;16.10;;;;;;;;;;5033048;28;20025;-66
2021/07/25 09:12:28;;;;;;;24.75;16.58;;;;;;;;;;5038203;28;20029;-66
2021/07/25 09:14:59;;;;;;;25.38;16.30;;;;;;;;;;5023119;28;20018;-66
2021/07/25 09:17:25;;;;;;;24.65;17.85;;;;;;;;;;5018034;28;20113;-66
2021/07/25 09:20:10;;;;;;;25.92;17.90;;;;;;;;;;5000702;28;20052;-66
2021/07/25 09:22:37;;;;;;;25.58;17.35;;;;;;;;;;5018442;28;20021;-67
2021/07/25 09:25:03;;;;;;;23.02;16.02;;;;;;;;;;5018526;28;20449;-65
2021/07/25 09:27:29;;;;;;;24.80;16.98;;;;;;;;;;5018127;28;20025;-66
2021/07/25 09:29:55;;;;;;;25.15;17.17;;;;;;;;;;5017822;28;20402;-66
2021/07/25 09:32:22;;;;;;;23.02;15.90;;;;;;;;;;4999346;28;20026;-66
2021/07/25 09:34:51;;;;;;;22.83;15.02;;;;;;;;;;4999733;28;20049;-66
2021/07/25 09:37:21;;;;;;;23.17;15.65;;;;;;;;;;5000239;28;20044;-66
2021/07/25 09:39:48;;;;;;;24.80;16.27;;;;;;;;;;5000673;28;20087;-66
2021/07/25 09:42:14;;;;;;;22.13;14.75;;;;;;;;;;5000607;28;20612;-67
2021/07/25 09:44:44;;;;;;;22.60;14.77;;;;;;;;;;5000563;28;20029;-66
2021/07/25 09:47:24;;;;;;;21.88;13.55;;;;;;;;;;5000384;28;20030;-66
2021/07/25 09:49:50;;;;;;;23.38;14.35;;;;;;;;;;5018527;28;20026;-66
2021/07/25 09:52:16;;;;;;;25.10;14.52;;;;;;;;;;5018395;28;20148;-66
2021/07/25 09:54:43;;;;;;;20.88;13.13;;;;;;;;;;5018092;28;20025;-66
2021/07/25 09:57:12;;;;;;;21.45;12.40;;;;;;;;;;5018036;28;20030;-66
2021/07/25 09:59:38;;;;;;;20.38;12.85;;;;;;;;;;5017923;28;20108;-66
2021/07/25 10:02:04;;;;;;;23.13;13.40;;;;;;;;;;4996682;28;20036;-66
2021/07/25 10:04:30;;;;;;;21.00;13.77;;;;;;;;;;5014963;28;20034;-66
2021/07/25 10:06:56;;;;;;;22.05;12.70;;;;;;;;;;5014673;28;20026;-67
2021/07/25 10:09:23;;;;;;;19.98;13.20;;;;;;;;;;5014531;28;20433;-66
2021/07/25 10:11:53;;;;;;;18.48;11.52;;;;;;;;;;5014725;28;20030;-66
2021/07/25 10:14:20;;;;;;;19.55;12.18;;;;;;;;;;5014624;28;20049;-66
2021/07/25 10:16:52;;;;;;;20.08;11.98;;;;;;;;;;5014418;28;20104;-66
2021/07/25 10:19:20;;;;;;;19.08;11.38;;;;;;;;;;5014482;28;20017;-66
2021/07/25 10:21:46;;;;;;;;;;;;;;;;;;5014823;28;20129;-66
2021/07/25 10:24:13;;;;;;;20.05;12.45;;;;;;;;;;5014321;28;19914;-66
2021/07/25 10:26:39;;;;;;;18.67;11.27;;;;;;;;;;4996481;28;20066;-65
2021/07/25 10:29:07;;;;;;;19.33;11.98;;;;;;;;;;4996823;28;20029;-66
2021/07/25 10:31:33;;;;;;;19.00;11.05;;;;;;;;;;4996703;28;20132;-66
2021/07/25 10:34:01;;;;;;;19.00;12.02;;;;;;;;;;4996773;28;20036;-66
2021/07/25 10:36:27;;;;;;;19.50;11.85;;;;;;;;;;5013908;28;20049;-66
2021/07/25 10:38:53;;;;;;;17.00;10.93;;;;;;;;;;5014288;28;20107;-66
2021/07/25 10:41:21;;;;;;;19.17;11.43;;;;;;;;;;4996427;28;20459;-66
2021/07/25 10:43:47;;;;;;;19.38;11.82;;;;;;;;;;5014179;28;20149;-66
2021/07/25 10:46:14;;;;;;;19.30;12.43;;;;;;;;;;5013669;28;20037;-65
2021/07/25 10:49:00;;;;;;;18.60;10.98;;;;;;;;;;5014345;28;20053;-66
2021/07/25 10:51:26;;;;;;;19.23;11.65;;;;;;;;;;5013405;28;20485;-66
2021/07/25 10:53:52;;;;;;;18.17;11.02;;;;;;;;;;5013501;28;20026;-65
2021/07/25 10:56:38;;;;;;;18.23;11.70;;;;;;;;;;5013328;28;20029;-66
2021/07/25 10:59:04;;;;;;;17.77;10.90;;;;;;;;;;4995498;28;20030;-65
2021/07/25 11:01:46;;;;;;;17.92;11.68;;;;;;;;;;5013558;28;20079;-66
2021/07/25 11:04:11;;;;;;;17.80;11.27;;;;;;;;;;5013422;28;20031;-66
2021/07/25 11:06:38;;;;;;;19.27;12.13;;;;;;;;;;5013075;28;20041;-66
2021/07/25 11:09:05;;;;;;;16.98;11.05;;;;;;;;;;4995394;28;20030;-65
2021/07/25 11:11:34;;;;;;;18.13;10.57;;;;;;;;;;5012615;28;20036;-65
2021/07/25 11:14:04;;;;;;;16.52;10.30;;;;;;;;;;5013007;28;20085;-65
2021/07/25 11:16:30;;;;;;;16.58;9.95;;;;;;;;;;5012876;28;20029;-66
2021/07/25 11:19:05;;;;;;;16.95;9.80;;;;;;;;;;4995561;28;20109;-65
2021/07/25 11:21:31;;;;;;;18.15;10.43;;;;;;;;;;5012595;28;20036;-66
2021/07/25 11:23:57;;;;;;;18.10;10.77;;;;;;;;;;5012649;28;20097;-65
2021/07/25 11:26:34;;;;;;;18.05;11.05;;;;;;;;;;4994902;28;20026;-65
2021/07/25 11:29:01;;;;;;;17.77;9.73;;;;;;;;;;4995656;28;20030;-65
2021/07/25 11:31:33;;;;;;;17.92;10.30;;;;;;;;;;5013275;28;20408;-65
2021/07/25 11:33:59;;;;;;;17.50;10.45;;;;;;;;;;5013056;28;20022;-65
2021/07/25 11:36:25;;;;;;;17.48;10.07;;;;;;;;;;4995098;28;20088;-66
2021/07/25 11:38:53;;;;;;;19.15;10.35;;;;;;;;;;5012963;28;20026;-65
2021/07/25 11:41:20;;;;;;;18.25;10.55;;;;;;;;;;5012937;28;20160;-66
2021/07/25 11:44:00;;;;;;;17.55;11.38;;;;;;;;;;4994926;28;20037;-64
2021/07/25 11:46:27;;;;;;;15.98;10.75;;;;;;;;;;4995031;28;20029;-64
2021/07/25 11:49:02;;;;;;;17.00;11.20;;;;;;;;;;5012944;28;20026;-64
2021/07/25 11:51:28;;;;;;;17.35;11.00;;;;;;;;;;4995144;28;20101;-64
2021/07/25 11:53:54;;;;;;;19.73;12.27;;;;;;;;;;4995366;28;20026;-65
2021/07/25 11:56:20;;;;;;;17.85;11.90;;;;;;;;;;4994794;28;20509;-66
2021/07/25 11:58:59;;;;;;;18.05;12.07;;;;;;;;;;4995393;28;20034;-66
2021/07/25 12:01:25;;;;;;;17.98;12.00;;;;;;;;;;5012608;28;20018;-66
2021/07/25 12:03:51;;;;;;;17.92;12.15;;;;;;;;;;5012371;28;20037;-64
2021/07/25 12:06:18;;;;;;;17.25;11.35;;;;;;;;;;4994928;28;20486;-65
2021/07/25 12:09:01;;;;;;;17.77;12.73;;;;;;;;;;5013035;28;20167;-66
2021/07/25 12:11:27;;;;;;;17.05;12.50;;;30.60;96.90;;;;;;5016369;28;20033;-68
2021/07/25 12:13:52;;;;;;;19.10;12.55;;;34.50;99.90;;;;;;4997646;28;20433;-65
2021/07/25 12:16:18;;;;;;;16.88;12.52;;;33.20;99.90;;;;;;5015249;28;20068;-65
2021/07/25 12:18:44;;;;;;;17.30;12.68;;;34.60;99.70;;;;;;5012871;28;20025;-66
2021/07/25 12:21:42;;;;;;;16.98;12.50;;;;;;;;;;5012200;28;20348;-66
2021/07/25 12:24:31;;;;;;;16.88;13.20;;;33.90;98.40;;;;;;4968846;28;20034;-66
2021/07/25 12:26:58;;;;;;;18.25;13.23;;;35.50;97.30;;;;;;4994597;28;20088;-66
2021/07/25 12:29:44;;;;;;;17.33;12.85;;;36.40;96.90;;;;;;5012230;28;20114;-66
2021/07/25 12:32:22;;;;;;;18.77;12.63;;;36.50;97.30;;;;;;4994775;28;20104;-66
2021/07/25 12:34:52;;;;;;;17.77;12.50;;;37.60;94.20;;;;;;4994806;28;20113;-66
2021/07/25 12:37:28;;;;;;;17.30;12.57;;;36.20;93.40;;;;;;5011960;28;20022;-66
2021/07/25 12:40:19;;;;;;;16.55;12.60;;;36.30;93.70;;;;;;5012173;28;20408;-66
2021/07/25 12:43:01;;;;;;;19.27;13.18;;;;;;;;;;5012851;28;20050;-67
2021/07/25 12:45:33;;;;;;;17.05;13.27;;;36.80;94.50;;;;;;4994670;28;20029;-67
2021/07/25 12:48:08;;;;;;;18.00;13.38;;;;;;;;;;5012687;28;20093;-66
2021/07/25 12:50:49;;;;;;;16.80;13.73;;;;;;;;;;5011742;28;20050;-66
2021/07/25 12:53:35;;;;;;;18.17;13.68;;;35.20;93.00;;;;;;5011685;28;20026;-66
2021/07/25 12:56:02;;;;;;;16.45;12.90;;;;;;;;;;4997653;28;20034;-66
2021/07/25 12:58:36;;;;;;;16.17;12.77;;;;;;;;;;5011855;28;20030;-65
2021/07/25 13:03:45;;;;;;;17.50;13.32;;;;;;;;;;5011861;28;20037;-66
2021/07/25 13:06:14;;;;;;;17.20;12.77;;;;;;;;;;4993914;28;20430;-66
2021/07/25 13:08:41;;;;;;;16.85;12.45;;;;;;;;;;4994557;28;20026;-66
2021/07/25 13:11:08;;;;;;;19.33;12.82;;;;;;;;;;5011754;28;20018;-66
2021/07/25 13:13:35;;;;;;;17.02;13.20;;;;;;;;;;5011582;28;20021;-66
2021/07/25 13:16:01;;;;;;;17.85;13.43;;;;;;;;;;4994176;28;20053;-66
2021/07/25 13:18:27;;;;;;;18.83;13.77;;;;;;;;;;4993979;28;20030;-66
2021/07/25 13:20:53;;;;;;;17.70;13.65;;;;;;;;;;5011690;28;20029;-66
2021/07/25 13:23:19;;;;;;;16.98;13.30;;;;;;;;;;4993993;28;20482;-66
2021/07/25 13:25:45;;;;;;;16.40;12.65;;;;;;;;;;5011258;28;20041;-66
2021/07/25 13:28:11;;;;;;;19.17;13.32;;;;;;;;;;5011569;28;20022;-65
2021/07/25 13:30:37;;;;;;;17.65;12.60;;;;;;;;;;5011426;28;20032;-64
2021/07/25 13:33:03;;;;;;;17.33;13.50;;;;;;;;;;5011617;28;20030;-64
2021/07/25 13:35:29;;;;;;;16.73;13.45;;;;;;;;;;4993649;28;20030;-66
2021/07/25 13:37:55;;;;;;;16.95;12.95;;;;;;;;;;5015328;28;20057;-66
2021/07/25 13:40:22;;;;;;;15.95;12.23;;;;;;;;;;5014948;28;20105;-66
2021/07/25 13:42:48;;;;;;;16.43;12.60;;;;;;;;;;5015531;28;20076;-66
2021/07/25 13:45:14;;;;;;;16.73;12.57;;;;;;;;;;5014953;28;20026;-66
2021/07/25 13:47:40;;;;;;;16.40;12.75;;;;;;;;;;5015637;28;20076;-66
2021/07/25 13:50:09;;;;;;;16.73;12.90;;;;;;;;;;5015153;28;20014;-66
2021/07/25 13:52:35;;;;;;;17.10;13.10;;;;;;;;;;5015036;28;20513;-66
2021/07/25 13:55:01;;;;;;;17.42;12.55;;;;;;;;;;4997237;28;20057;-66
2021/07/25 13:57:27;;;;;;;19.13;12.68;;;;;;;;;;5014765;28;20482;-66
2021/07/25 13:59:53;;;;;;;17.88;12.77;;;;;;;;;;5015029;28;20026;-66
2021/07/25 14:02:19;;;;;;;16.15;13.02;;;32.80;92.70;;;;;;5014910;28;20394;-66
2021/07/25 14:04:44;;;;;;;16.92;13.00;;;36.80;85.60;;;;;;5014785;28;20037;-65
2021/07/25 14:07:10;;;;;;;16.45;12.65;;;35.20;86.50;;;;;;5014139;28;20474;-66
2021/07/25 14:09:36;;;;;;;16.20;12.63;;;33.50;88.20;;;;;;4997178;28;20026;-65
2021/07/25 14:12:01;;;;;;;16.92;12.65;;;33.00;90.80;;;;;;5014656;28;20042;-66
2021/07/25 14:14:29;;;;;;;16.67;12.25;;;33.40;91.40;;;;;;5014620;28;20038;-65